createdAt,value
2022-12-08T00:00:00.280Z,7.10
2022-12-08T00:02:31.362Z,7.50
2022-12-08T00:05:19.870Z,7.20
2022-12-08T00:08:10.398Z,7.30
2022-12-08T00:10:51.048Z,6.70
2022-12-08T00:13:21.996Z,6.70
2022-12-08T00:15:53.043Z,6.60
2022-12-08T00:18:23.885Z,6.50
2022-12-08T00:20:59.509Z,6.20
2022-12-08T00:23:30.322Z,5.60
2022-12-08T00:26:05.407Z,5.90
2022-12-08T00:28:36.558Z,8.50
2022-12-08T00:31:12.167Z,5.50
2022-12-08T00:33:43.047Z,5.00
2022-12-08T00:36:15.971Z,3.90
2022-12-08T00:38:48.433Z,4.20
2022-12-08T00:41:41.050Z,3.70
2022-12-08T00:44:14.335Z,3.30
2022-12-08T00:46:45.991Z,3.30
2022-12-08T00:49:17.655Z,3.20
2022-12-08T00:51:48.607Z,2.90
2022-12-08T00:54:20.067Z,3.50
2022-12-08T00:56:50.909Z,2.90
2022-12-08T00:59:22.301Z,3.50
2022-12-08T01:01:53.191Z,3.30
2022-12-08T01:04:24.024Z,3.30
2022-12-08T01:06:54.963Z,3.10
2022-12-08T01:09:26.011Z,4.00
2022-12-08T01:11:57.186Z,2.70
2022-12-08T01:14:28.117Z,3.40
2022-12-08T01:16:59.193Z,3.30
2022-12-08T01:19:31.022Z,3.40
2022-12-08T01:22:01.935Z,3.30
2022-12-08T01:24:32.957Z,3.30
2022-12-08T01:27:03.803Z,3.20
2022-12-08T01:29:34.906Z,3.10
2022-12-08T01:32:06.187Z,3.10
2022-12-08T01:34:37.304Z,3.60
2022-12-08T01:37:10.746Z,3.30
2022-12-08T01:39:41.768Z,3.10
2022-12-08T01:42:24.379Z,3.20
2022-12-08T01:45:01.367Z,3.30
2022-12-08T01:47:39.201Z,3.30
2022-12-08T01:50:14.438Z,3.40
2022-12-08T01:52:50.678Z,2.90
2022-12-08T01:55:27.104Z,3.30
2022-12-08T01:58:01.715Z,3.30
2022-12-08T02:00:32.623Z,3.60
2022-12-08T02:03:05.849Z,3.30
2022-12-08T02:05:40.068Z,3.40
2022-12-08T02:08:14.046Z,2.90
2022-12-08T02:10:47.780Z,3.40
2022-12-08T02:13:21.570Z,3.50
2022-12-08T02:16:05.132Z,3.40
2022-12-08T02:19:02.100Z,3.30
2022-12-08T02:21:49.354Z,3.70
2022-12-08T02:24:31.835Z,3.10
2022-12-08T02:27:29.658Z,3.40
2022-12-08T02:30:14.305Z,3.60
2022-12-08T02:33:20.908Z,3.30
2022-12-08T02:35:59.620Z,3.70
2022-12-08T02:38:47.254Z,3.70
2022-12-08T02:41:30.486Z,4.10
2022-12-08T02:44:07.561Z,4.20
2022-12-08T02:46:42.777Z,3.70
2022-12-08T02:51:45.644Z,4.50
2022-12-08T02:54:17.248Z,4.30
2022-12-08T02:57:01.514Z,4.00
2022-12-08T02:59:45.970Z,3.80
2022-12-08T03:02:37.560Z,4.60
2022-12-08T03:05:14.973Z,4.20
2022-12-08T03:07:52.235Z,3.80
2022-12-08T03:10:30.767Z,4.20
2022-12-08T03:13:07.066Z,4.10
2022-12-08T03:15:39.610Z,3.90
2022-12-08T03:18:16.760Z,4.40
2022-12-08T03:20:49.101Z,3.50
2022-12-08T03:23:21.477Z,4.20
2022-12-08T03:25:57.851Z,3.80
2022-12-08T03:28:28.701Z,4.70
2022-12-08T03:31:06.345Z,5.20
2022-12-08T03:33:41.309Z,3.90
2022-12-08T03:36:14.831Z,4.20
2022-12-08T03:38:48.022Z,4.40
2022-12-08T03:41:19.780Z,4.20
2022-12-08T03:43:51.842Z,4.20
2022-12-08T03:48:55.532Z,5.00
2022-12-08T03:51:28.237Z,5.20
2022-12-08T03:53:59.175Z,6.40
2022-12-08T03:56:32.408Z,4.40
2022-12-08T03:59:03.620Z,4.70
2022-12-08T04:01:34.759Z,4.90
2022-12-08T04:04:05.862Z,4.40
2022-12-08T04:06:36.850Z,5.40
2022-12-08T04:09:07.790Z,5.40
2022-12-08T04:11:38.652Z,5.40
2022-12-08T04:14:09.571Z,5.60
2022-12-08T04:16:40.535Z,5.60
2022-12-08T04:19:11.394Z,6.30
2022-12-08T04:21:42.188Z,5.40
2022-12-08T04:24:12.986Z,6.50
2022-12-08T04:26:43.860Z,5.60
2022-12-08T04:29:14.715Z,6.80
2022-12-08T04:31:45.607Z,6.10
2022-12-08T04:34:16.504Z,6.10
2022-12-08T04:36:47.325Z,5.80
2022-12-08T04:39:18.266Z,7.00
2022-12-08T04:41:49.017Z,6.50
2022-12-08T04:44:20.072Z,5.80
2022-12-08T04:46:50.848Z,6.50
2022-12-08T04:49:21.738Z,6.30
2022-12-08T04:51:52.566Z,6.10
2022-12-08T04:54:23.344Z,6.10
2022-12-08T04:56:54.224Z,6.30
2022-12-08T04:59:25.029Z,6.70
2022-12-08T05:01:56.209Z,6.80
2022-12-08T05:04:27.455Z,7.20
2022-12-08T05:06:58.735Z,6.60
2022-12-08T05:09:29.947Z,6.90
2022-12-08T05:12:00.749Z,6.50
2022-12-08T05:14:31.731Z,9.40
2022-12-08T05:17:07.777Z,7.80
2022-12-08T05:19:40.257Z,7.20
2022-12-08T05:22:11.408Z,6.70
2022-12-08T05:24:47.449Z,6.60
2022-12-08T05:27:18.892Z,7.60
2022-12-08T05:29:50.377Z,6.40
2022-12-08T05:32:21.227Z,7.50
2022-12-08T05:34:52.091Z,6.90
2022-12-08T05:37:22.880Z,6.90
2022-12-08T05:39:54.177Z,6.90
2022-12-08T05:42:25.337Z,6.80
2022-12-08T05:44:56.325Z,7.30
2022-12-08T05:47:28.879Z,6.90
2022-12-08T05:50:02.872Z,7.10
2022-12-08T05:52:34.468Z,7.80
2022-12-08T05:55:06.234Z,7.10
2022-12-08T05:57:37.085Z,8.30
2022-12-08T06:00:10.650Z,7.30
2022-12-08T06:02:44.590Z,7.50
2022-12-08T06:05:15.849Z,6.60
2022-12-08T06:07:46.815Z,7.50
2022-12-08T06:10:17.736Z,7.40
2022-12-08T06:12:48.612Z,7.80
2022-12-08T06:15:19.910Z,7.70
2022-12-08T06:17:51.046Z,7.90
2022-12-08T06:20:21.857Z,8.00
2022-12-08T06:22:52.699Z,8.70
2022-12-08T06:25:23.866Z,9.00
2022-12-08T06:27:54.760Z,7.90
2022-12-08T06:30:26.260Z,7.90
2022-12-08T06:32:57.097Z,7.70
2022-12-08T06:35:28.035Z,7.00
2022-12-08T06:37:58.861Z,6.80
2022-12-08T06:40:29.802Z,8.20
2022-12-08T06:43:01.213Z,8.10
2022-12-08T06:45:32.056Z,8.90
2022-12-08T06:48:04.256Z,8.70
2022-12-08T06:50:36.026Z,8.70
2022-12-08T06:53:06.873Z,8.30
2022-12-08T06:58:28.614Z,7.70
2022-12-08T07:00:59.513Z,8.00
2022-12-08T07:03:30.417Z,8.00
2022-12-08T07:06:04.200Z,7.90
2022-12-08T07:08:36.175Z,8.00
2022-12-08T07:11:15.317Z,8.20
2022-12-08T07:13:51.423Z,7.90
2022-12-08T07:16:22.587Z,7.80
2022-12-08T07:18:53.565Z,7.50
2022-12-08T07:21:25.999Z,10.60
2022-12-08T07:24:00.747Z,9.30
2022-12-08T07:26:31.575Z,8.30
2022-12-08T07:29:06.226Z,8.30
2022-12-08T07:31:38.145Z,7.00
2022-12-08T07:34:09.160Z,8.50
2022-12-08T07:36:40.345Z,8.60
2022-12-08T07:39:11.780Z,7.30
2022-12-08T07:41:42.796Z,8.20
2022-12-08T07:44:13.710Z,8.60
2022-12-08T07:46:44.644Z,8.10
2022-12-08T07:49:15.576Z,7.90
2022-12-08T07:51:46.418Z,10.20
2022-12-08T07:54:17.358Z,8.00
2022-12-08T07:56:48.227Z,7.50
2022-12-08T07:59:19.358Z,10.20
2022-12-08T08:02:21.006Z,8.20
2022-12-08T08:04:46.054Z,7.60
2022-12-08T08:07:20.894Z,7.30
2022-12-08T08:09:51.800Z,7.30
2022-12-08T08:12:32.361Z,8.10
2022-12-08T08:15:05.081Z,6.80
2022-12-08T08:17:37.069Z,7.00
2022-12-08T08:20:11.246Z,6.30
2022-12-08T08:22:42.113Z,7.30
2022-12-08T08:25:14.569Z,6.70
2022-12-08T08:27:50.972Z,6.40
2022-12-08T08:30:22.731Z,7.10
2022-12-08T08:32:53.728Z,7.10
2022-12-08T08:35:25.182Z,7.00
2022-12-08T08:37:56.643Z,8.70
2022-12-08T08:40:27.568Z,7.10
2022-12-08T08:42:58.413Z,6.60
2022-12-08T08:45:29.323Z,7.40
2022-12-08T08:48:00.178Z,8.30
2022-12-08T08:50:35.963Z,7.20
2022-12-08T08:53:08.465Z,7.20
2022-12-08T08:55:41.398Z,7.20
2022-12-08T08:58:12.260Z,6.80
2022-12-08T09:00:43.309Z,7.40
2022-12-08T09:03:14.488Z,6.70
2022-12-08T09:05:45.412Z,6.70
2022-12-08T09:08:16.469Z,7.30
2022-12-08T09:10:47.421Z,7.50
2022-12-08T09:13:18.326Z,7.20
2022-12-08T09:15:49.404Z,7.00
2022-12-08T09:18:20.553Z,7.60
2022-12-08T09:20:51.903Z,7.50
2022-12-08T09:23:22.730Z,6.70
2022-12-08T09:25:56.594Z,7.20
2022-12-08T09:28:27.367Z,7.60
2022-12-08T09:30:59.485Z,7.00
2022-12-08T09:33:31.431Z,7.80
2022-12-08T09:36:06.465Z,8.60
2022-12-08T09:38:38.881Z,7.60
2022-12-08T09:41:21.902Z,6.70
2022-12-08T09:44:08.341Z,7.50
2022-12-08T09:46:40.811Z,6.50
2022-12-08T09:49:19.954Z,7.80
2022-12-08T09:51:50.903Z,7.90
2022-12-08T09:54:26.270Z,7.20
2022-12-08T09:57:02.306Z,8.90
2022-12-08T09:59:35.745Z,8.40
2022-12-08T10:02:20.306Z,9.00
2022-12-08T10:04:51.595Z,8.20
2022-12-08T10:07:30.853Z,9.40
2022-12-08T10:10:08.851Z,10.10
2022-12-08T10:12:47.791Z,9.20
2022-12-08T10:15:37.776Z,9.30
2022-12-08T10:18:18.255Z,8.40
2022-12-08T10:20:51.102Z,8.40
2022-12-08T10:23:36.000Z,9.30
2022-12-08T10:26:09.103Z,10.70
2022-12-08T10:28:44.772Z,10.10
2022-12-08T10:31:22.189Z,15.10
2022-12-08T10:33:59.293Z,9.90
2022-12-08T10:36:48.017Z,11.50
2022-12-08T10:39:39.635Z,10.90
2022-12-08T10:42:22.648Z,10.10
2022-12-08T10:45:03.890Z,10.60
2022-12-08T10:47:42.509Z,9.00
2022-12-08T10:50:24.662Z,9.70
2022-12-08T10:53:04.579Z,11.00
2022-12-08T10:55:47.042Z,9.60
2022-12-08T10:58:42.334Z,10.80
2022-12-08T11:01:18.550Z,11.40
2022-12-08T11:03:52.799Z,11.70
2022-12-08T11:06:26.552Z,10.10
2022-12-08T11:09:01.092Z,11.20
2022-12-08T11:11:46.015Z,9.30
2022-12-08T11:14:23.857Z,10.70
2022-12-08T11:16:57.227Z,11.80
2022-12-08T11:19:29.091Z,12.60
2022-12-08T11:22:00.190Z,11.40
2022-12-08T11:24:37.843Z,10.90
2022-12-08T11:27:09.857Z,10.60
2022-12-08T11:29:41.105Z,12.20
2022-12-08T11:32:15.462Z,12.20
2022-12-08T11:34:51.995Z,11.10
2022-12-08T11:37:34.682Z,13.40
2022-12-08T11:40:16.445Z,12.20
2022-12-08T11:42:55.989Z,15.10
2022-12-08T11:45:31.543Z,15.60
2022-12-08T11:48:12.051Z,15.80
2022-12-08T11:50:48.916Z,15.10
2022-12-08T11:53:27.901Z,15.00
2022-12-08T11:56:03.376Z,13.90
2022-12-08T11:58:43.318Z,15.60
2022-12-08T12:01:21.167Z,15.50
2022-12-08T12:04:00.805Z,15.60
2022-12-08T12:06:55.091Z,16.20
2022-12-08T12:09:39.839Z,18.50
2022-12-08T12:12:23.089Z,15.90
2022-12-08T12:15:24.361Z,14.10
2022-12-08T12:18:00.909Z,15.70
2022-12-08T12:20:36.254Z,17.70
2022-12-08T12:23:15.825Z,17.50
2022-12-08T12:25:56.857Z,18.20
2022-12-08T12:28:32.036Z,18.20
2022-12-08T12:31:08.048Z,19.40
2022-12-08T12:33:39.446Z,18.40
2022-12-08T12:36:13.006Z,17.70
2022-12-08T12:39:06.359Z,15.10
2022-12-08T12:41:48.425Z,16.90
2022-12-08T12:44:38.466Z,18.20
2022-12-08T12:47:14.809Z,14.30
2022-12-08T12:50:08.944Z,20.80
2022-12-08T12:52:51.559Z,18.90
2022-12-08T12:55:55.949Z,13.10
2022-12-08T12:58:43.094Z,17.60
2022-12-08T13:01:50.800Z,17.80
2022-12-08T13:04:36.380Z,17.50
2022-12-08T13:07:09.275Z,16.40
2022-12-08T13:09:41.709Z,19.00
2022-12-08T13:12:24.525Z,16.10
2022-12-08T13:15:00.506Z,16.60
2022-12-08T13:17:36.090Z,13.60
2022-12-08T13:20:21.828Z,15.90
2022-12-08T13:23:12.179Z,18.80
2022-12-08T13:26:12.223Z,17.70
2022-12-08T13:29:19.427Z,18.40
2022-12-08T13:31:52.869Z,16.30
2022-12-08T13:34:31.553Z,16.10
2022-12-08T13:37:23.403Z,18.80
2022-12-08T13:40:00.324Z,16.60
2022-12-08T13:42:42.176Z,16.20
2022-12-08T13:45:48.614Z,17.10
2022-12-08T13:48:35.262Z,16.80
2022-12-08T13:53:28.427Z,17.80
2022-12-08T13:57:10.552Z,16.30
2022-12-08T13:59:46.712Z,19.20
2022-12-08T14:02:27.319Z,24.20
2022-12-08T14:07:53.490Z,18.40
2022-12-08T14:10:28.362Z,18.80
2022-12-08T14:13:02.422Z,17.40
2022-12-08T14:15:38.294Z,14.50
2022-12-08T14:18:25.777Z,17.60
2022-12-08T14:21:21.145Z,18.40
2022-12-08T14:23:52.592Z,19.20
2022-12-08T14:26:23.561Z,17.80
2022-12-08T14:28:54.839Z,18.70
2022-12-08T14:31:28.898Z,16.50
2022-12-08T14:33:59.867Z,19.40
2022-12-08T14:36:33.466Z,18.40
2022-12-08T14:39:05.311Z,18.70
2022-12-08T14:41:36.218Z,17.10
2022-12-08T14:44:21.409Z,19.50
2022-12-08T14:52:20.070Z,18.20
2022-12-08T14:54:57.288Z,16.20
2022-12-08T14:57:37.638Z,18.80
2022-12-08T15:00:22.010Z,19.20
2022-12-08T15:02:52.954Z,18.20
2022-12-08T15:05:30.711Z,17.70
2022-12-08T15:08:05.731Z,15.10
2022-12-08T15:10:39.988Z,12.70
2022-12-08T15:13:23.975Z,16.40
2022-12-08T15:15:56.824Z,16.80
2022-12-08T15:18:37.290Z,18.30
2022-12-08T15:21:12.899Z,18.80
2022-12-08T15:23:46.790Z,16.90
2022-12-08T15:26:22.328Z,13.90
2022-12-08T15:28:53.862Z,18.30
2022-12-08T15:31:24.767Z,18.30
2022-12-08T15:33:55.829Z,17.60
2022-12-08T15:36:26.718Z,17.70
2022-12-08T15:38:57.814Z,18.20
2022-12-08T15:41:28.650Z,19.50
2022-12-08T15:43:59.505Z,19.00
2022-12-08T15:46:30.522Z,20.10
2022-12-08T15:49:01.570Z,16.30
2022-12-08T15:51:36.527Z,18.90
2022-12-08T15:54:07.760Z,19.90
2022-12-08T15:56:45.464Z,18.30
2022-12-08T15:59:23.915Z,18.50
2022-12-08T16:01:55.262Z,18.60
2022-12-08T16:07:24.435Z,18.60
2022-12-08T16:09:56.271Z,14.50
2022-12-08T16:13:48.285Z,16.70
2022-12-08T16:15:53.637Z,17.70
2022-12-08T16:18:34.487Z,17.90
2022-12-08T16:21:16.901Z,19.40
2022-12-08T16:23:57.230Z,20.10
2022-12-08T16:27:28.453Z,21.40
2022-12-08T16:29:22.660Z,20.90
2022-12-08T16:31:53.550Z,22.80
2022-12-08T16:34:24.650Z,23.00
2022-12-08T16:36:55.589Z,19.00
2022-12-08T16:39:26.779Z,19.80
2022-12-08T16:42:15.353Z,17.60
2022-12-08T16:44:46.549Z,17.60
2022-12-08T16:47:17.636Z,16.30
2022-12-08T16:49:48.731Z,20.20
2022-12-08T16:52:19.888Z,17.80
2022-12-08T16:54:50.816Z,15.80
2022-12-08T16:57:21.977Z,17.60
2022-12-08T16:59:53.186Z,18.10
2022-12-08T17:02:24.746Z,20.20
2022-12-08T17:05:00.347Z,19.80
2022-12-08T17:07:32.110Z,16.90
2022-12-08T17:10:06.388Z,20.00
2022-12-08T17:12:38.113Z,17.90
2022-12-08T17:15:12.697Z,21.60
2022-12-08T17:17:43.811Z,20.50
2022-12-08T17:20:17.927Z,21.30
2022-12-08T17:22:49.939Z,17.60
2022-12-08T17:25:21.215Z,19.60
2022-12-08T17:27:52.319Z,19.10
2022-12-08T17:30:23.643Z,15.70
2022-12-08T17:32:54.561Z,19.20
2022-12-08T17:35:25.985Z,18.80
2022-12-08T17:37:57.103Z,19.90
2022-12-08T17:40:28.515Z,18.70
2022-12-08T17:42:59.937Z,19.40
2022-12-08T17:45:31.060Z,17.40
2022-12-08T17:48:02.046Z,18.50
2022-12-08T17:50:32.978Z,19.40
2022-12-08T17:53:03.814Z,20.00
2022-12-08T17:55:34.925Z,17.50
2022-12-08T17:58:06.683Z,17.40
2022-12-08T18:00:38.171Z,18.60
2022-12-08T18:03:08.974Z,18.40
2022-12-08T18:05:40.072Z,18.80
2022-12-08T18:08:11.882Z,18.70
2022-12-08T18:10:43.064Z,17.80
2022-12-08T18:13:13.953Z,19.10
2022-12-08T18:15:46.994Z,18.60
2022-12-08T18:18:20.295Z,19.90
2022-12-08T18:20:51.418Z,17.80
2022-12-08T18:23:22.233Z,17.90
2022-12-08T18:25:54.618Z,16.40
2022-12-08T18:28:26.896Z,16.90
2022-12-08T18:30:57.992Z,17.30
2022-12-08T18:33:29.289Z,18.60
2022-12-08T18:36:03.087Z,17.50
2022-12-08T18:38:34.823Z,16.30
2022-12-08T18:41:10.489Z,17.80
2022-12-08T18:43:41.869Z,16.30
2022-12-08T18:46:15.024Z,18.80
2022-12-08T18:48:49.273Z,22.20
2022-12-08T18:51:23.285Z,21.20
2022-12-08T18:53:54.566Z,15.30
2022-12-08T18:56:27.801Z,16.60
2022-12-08T18:59:03.585Z,17.60
2022-12-08T19:01:36.425Z,17.40
2022-12-08T19:04:27.853Z,17.50
2022-12-08T19:07:01.648Z,15.90
2022-12-08T19:09:32.689Z,17.70
2022-12-08T19:12:04.087Z,17.00
2022-12-08T19:14:35.610Z,18.80
2022-12-08T19:17:06.874Z,18.30
2022-12-08T19:19:38.367Z,17.40
2022-12-08T19:22:09.697Z,16.60
2022-12-08T19:24:40.634Z,17.10
2022-12-08T19:27:11.620Z,17.90
2022-12-08T19:29:42.628Z,17.70
2022-12-08T19:32:13.613Z,17.60
2022-12-08T19:34:44.454Z,19.30
2022-12-08T19:37:17.485Z,17.00
2022-12-08T19:40:06.469Z,15.80
2022-12-08T19:42:55.473Z,19.50
2022-12-08T19:45:27.748Z,18.60
2022-12-08T19:47:58.717Z,14.50
2022-12-08T19:50:39.217Z,16.00
2022-12-08T19:53:12.127Z,18.10
2022-12-08T19:55:43.747Z,20.20
2022-12-08T19:58:14.985Z,18.20
2022-12-08T20:00:46.575Z,20.30
2022-12-08T20:03:19.888Z,21.30
2022-12-08T20:05:53.961Z,19.80
2022-12-08T20:08:25.029Z,22.00
2022-12-08T20:10:59.201Z,20.20
2022-12-08T20:13:44.726Z,17.80
2022-12-08T20:16:17.136Z,17.90
2022-12-08T20:18:48.831Z,18.30
2022-12-08T20:21:20.491Z,19.60
2022-12-08T20:23:51.483Z,17.40
2022-12-08T20:26:24.900Z,17.90
2022-12-08T20:28:55.993Z,18.40
2022-12-08T20:31:29.130Z,17.70
2022-12-08T20:34:00.140Z,17.00
2022-12-08T20:36:31.569Z,19.20
2022-12-08T20:39:02.870Z,19.80
2022-12-08T20:41:38.813Z,19.00
2022-12-08T20:44:10.845Z,19.70
2022-12-08T20:46:47.753Z,17.90
2022-12-08T20:49:20.186Z,19.70
2022-12-08T20:51:51.329Z,16.80
2022-12-08T20:54:22.582Z,19.20
2022-12-08T20:56:53.654Z,18.70
2022-12-08T20:59:26.377Z,19.70
2022-12-08T21:01:57.630Z,18.00
2022-12-08T21:04:29.427Z,20.30
2022-12-08T21:07:00.950Z,18.10
2022-12-08T21:09:32.202Z,20.10
2022-12-08T21:12:03.779Z,21.50
2022-12-08T21:14:36.250Z,21.40
2022-12-08T21:17:07.722Z,21.40
2022-12-08T21:19:39.379Z,21.30
2022-12-08T21:22:10.837Z,21.20
2022-12-08T21:24:42.378Z,21.60
2022-12-08T21:27:14.064Z,21.60
2022-12-08T21:29:45.541Z,19.70
2022-12-08T21:32:17.527Z,25.30
2022-12-08T21:34:48.881Z,22.80
2022-12-08T21:37:19.877Z,22.10
2022-12-08T21:39:51.852Z,20.80
2022-12-08T21:42:40.914Z,20.30
2022-12-08T21:45:14.278Z,20.90
2022-12-08T21:47:46.266Z,20.40
2022-12-08T21:50:18.511Z,20.70
2022-12-08T21:52:51.087Z,22.60
2022-12-08T21:55:23.831Z,19.70
2022-12-08T21:57:57.219Z,19.70
2022-12-08T22:00:29.850Z,21.00
2022-12-08T22:03:01.602Z,20.30
2022-12-08T22:05:33.467Z,21.10
2022-12-08T22:08:05.234Z,20.30
2022-12-08T22:10:36.919Z,20.20
2022-12-08T22:13:08.313Z,20.40
2022-12-08T22:15:39.624Z,20.80
2022-12-08T22:18:11.851Z,20.20
2022-12-08T22:20:44.565Z,19.20
2022-12-08T22:23:15.720Z,19.60
2022-12-08T22:25:47.624Z,19.80
2022-12-08T22:28:18.936Z,20.00
2022-12-08T22:30:50.234Z,21.50
2022-12-08T22:33:21.787Z,21.70
2022-12-08T22:36:04.711Z,20.80
2022-12-08T22:38:37.843Z,20.50
2022-12-08T22:41:09.545Z,21.30
2022-12-08T22:43:41.499Z,21.50
2022-12-08T22:46:15.551Z,21.70
2022-12-08T22:48:46.973Z,20.80
2022-12-08T22:51:19.340Z,18.50
2022-12-08T22:53:51.008Z,20.50
2022-12-08T22:56:22.151Z,20.30
2022-12-08T22:58:53.286Z,19.90
2022-12-08T23:01:27.819Z,21.10
2022-12-08T23:03:59.755Z,18.50
2022-12-08T23:06:32.761Z,19.60
2022-12-08T23:09:04.310Z,20.30
2022-12-08T23:11:36.252Z,19.10
2022-12-08T23:14:07.468Z,21.00
2022-12-08T23:16:38.953Z,19.10
2022-12-08T23:19:10.495Z,19.90
2022-12-08T23:21:41.717Z,20.70
2022-12-08T23:24:12.934Z,19.80
2022-12-08T23:26:44.039Z,20.50
2022-12-08T23:32:04.773Z,20.60
2022-12-08T23:34:36.360Z,20.00
2022-12-08T23:37:07.721Z,19.60
2022-12-08T23:39:39.475Z,19.50
2022-12-08T23:42:11.108Z,18.90
2022-12-08T23:44:42.900Z,19.20
2022-12-08T23:47:14.349Z,19.20
2022-12-08T23:49:45.717Z,19.10
2022-12-08T23:52:17.400Z,20.40
2022-12-08T23:54:50.739Z,17.90
2022-12-08T23:57:22.182Z,21.10
2022-12-08T23:59:53.150Z,20.30
